sensor_id;sensor_type;location;lat;lon;timestamp;pressure;altitude;pressure_sealevel;temperature
74485;BMP280;62942;52.462;10.846;2023-09-08T00:01:00;101340;;;
74485;BMP280;62942;52.462;10.846;2023-09-08T00:02:10;101340;;;
74485;BMP280;62942;52.462;10.846;2023-09-08T00:03:10;101340;;;
74485;BMP280;62942;52.462;10.846;2023-09-08T00:04:10;101340;;;
74485;BMP280;62942;52.462;10.846;2023-09-08T00:05:10;101340;;;
74485;BMP280;62942;52.462;10.846;2023-09-08T00:06:10;101340;;;
74485;BMP280;62942;52.462;10.846;2023-09-08T00:07:20;101340;;;
74485;BMP280;62942;52.462;10.846;2023-09-08T00:08:30;101340;;;
74485;BMP280;62942;52.462;10.846;2023-09-08T00:09:30;101340;;;
74485;BMP280;62942;52.462;10.846;2023-09-08T00:10:40;101340;;;
74485;BMP280;62942;52.462;10.846;2023-09-08T00:11:50;101350;;;
74485;BMP280;62942;52.462;10.846;2023-09-08T00:13:00;101350;;;
74485;BMP280;62942;52.462;10.846;2023-09-08T00:14:00;101350;;;
74485;BMP280;62942;52.462;10.846;2023-09-08T00:15:00;101340;;;
74485;BMP280;62942;52.462;10.846;2023-09-08T00:16:10;101340;;;
74485;BMP280;62942;52.462;10.846;2023-09-08T00:17:20;101340;;;
74485;BMP280;62942;52.462;10.846;2023-09-08T00:18:30;101340;;;
74485;BMP280;62942;52.462;10.846;2023-09-08T00:19:40;101350;;;
74485;BMP280;62942;52.462;10.846;2023-09-08T00:20:50;101340;;;
74485;BMP280;62942;52.462;10.846;2023-09-08T00:21:50;101340;;;
74485;BMP280;62942;52.462;10.846;2023-09-08T00:23:00;101350;;;
74485;BMP280;62942;52.462;10.846;2023-09-08T00:24:00;101340;;;
74485;BMP280;62942;52.462;10.846;2023-09-08T00:25:10;101340;;;
74485;BMP280;62942;52.462;10.846;2023-09-08T00:26:10;101340;;;
74485;BMP280;62942;52.462;10.846;2023-09-08T00:27:20;101340;;;
74485;BMP280;62942;52.462;10.846;2023-09-08T00:28:20;101340;;;
74485;BMP280;62942;52.462;10.846;2023-09-08T00:29:20;101340;;;
74485;BMP280;62942;52.462;10.846;2023-09-08T00:30:30;101340;;;
74485;BMP280;62942;52.462;10.846;2023-09-08T00:32:40;101340;;;
74485;BMP280;62942;52.462;10.846;2023-09-08T00:33:50;101340;;;
74485;BMP280;62942;52.462;10.846;2023-09-08T00:34:50;101340;;;
74485;BMP280;62942;52.462;10.846;2023-09-08T00:36:00;101340;;;
74485;BMP280;62942;52.462;10.846;2023-09-08T00:37:10;101340;;;
74485;BMP280;62942;52.462;10.846;2023-09-08T00:38:10;101340;;;
74485;BMP280;62942;52.462;10.846;2023-09-08T00:39:20;101340;;;
74485;BMP280;62942;52.462;10.846;2023-09-08T00:40:30;101340;;;
74485;BMP280;62942;52.462;10.846;2023-09-08T00:41:30;101340;;;
74485;BMP280;62942;52.462;10.846;2023-09-08T00:42:40;101340;;;
74485;BMP280;62942;52.462;10.846;2023-09-08T00:43:50;101340;;;
74485;BMP280;62942;52.462;10.846;2023-09-08T00:45:00;101340;;;
74485;BMP280;62942;52.462;10.846;2023-09-08T00:46:00;101330;;;
74485;BMP280;62942;52.462;10.846;2023-09-08T00:47:10;101340;;;
74485;BMP280;62942;52.462;10.846;2023-09-08T00:48:20;101330;;;
74485;BMP280;62942;52.462;10.846;2023-09-08T00:49:20;101330;;;
74485;BMP280;62942;52.462;10.846;2023-09-08T00:50:30;101330;;;
74485;BMP280;62942;52.462;10.846;2023-09-08T00:51:40;101330;;;
74485;BMP280;62942;52.462;10.846;2023-09-08T00:52:50;101330;;;
74485;BMP280;62942;52.462;10.846;2023-09-08T00:53:50;101330;;;
74485;BMP280;62942;52.462;10.846;2023-09-08T00:55:00;101320;;;
74485;BMP280;62942;52.462;10.846;2023-09-08T00:56:00;101320;;;
74485;BMP280;62942;52.462;10.846;2023-09-08T00:57:10;101330;;;
74485;BMP280;62942;52.462;10.846;2023-09-08T00:58:11;101340;;;
74485;BMP280;62942;52.462;10.846;2023-09-08T00:59:20;101340;;;
74485;BMP280;62942;52.462;10.846;2023-09-08T01:00:30;101330;;;
74485;BMP280;62942;52.462;10.846;2023-09-08T01:01:30;101330;;;
74485;BMP280;62942;52.462;10.846;2023-09-08T01:02:40;101330;;;
74485;BMP280;62942;52.462;10.846;2023-09-08T01:03:40;101330;;;
74485;BMP280;62942;52.462;10.846;2023-09-08T01:04:50;101330;;;
74485;BMP280;62942;52.462;10.846;2023-09-08T01:05:50;101330;;;
74485;BMP280;62942;52.462;10.846;2023-09-08T01:07:00;101320;;;
74485;BMP280;62942;52.462;10.846;2023-09-08T01:08:00;101330;;;
74485;BMP280;62942;52.462;10.846;2023-09-08T01:09:10;101320;;;
74485;BMP280;62942;52.462;10.846;2023-09-08T01:10:20;101330;;;
74485;BMP280;62942;52.462;10.846;2023-09-08T01:11:20;101320;;;
74485;BMP280;62942;52.462;10.846;2023-09-08T01:12:20;101320;;;
74485;BMP280;62942;52.462;10.846;2023-09-08T01:13:30;101320;;;
74485;BMP280;62942;52.462;10.846;2023-09-08T01:14:30;101330;;;
74485;BMP280;62942;52.462;10.846;2023-09-08T01:15:40;101330;;;
74485;BMP280;62942;52.462;10.846;2023-09-08T01:16:40;101330;;;
74485;BMP280;62942;52.462;10.846;2023-09-08T01:17:50;101320;;;
74485;BMP280;62942;52.462;10.846;2023-09-08T01:19:00;101320;;;
74485;BMP280;62942;52.462;10.846;2023-09-08T01:20:12;101320;;;
74485;BMP280;62942;52.462;10.846;2023-09-08T01:21:26;101320;;;
74485;BMP280;62942;52.462;10.846;2023-09-08T01:22:37;101320;;;
74485;BMP280;62942;52.462;10.846;2023-09-08T01:23:46;101320;;;
74485;BMP280;62942;52.462;10.846;2023-09-08T01:25:25;101310;;;
74485;BMP280;62942;52.462;10.846;2023-09-08T01:25:40;101310;;;
74485;BMP280;62942;52.462;10.846;2023-09-08T01:26:50;101310;;;
74485;BMP280;62942;52.462;10.846;2023-09-08T01:28:01;101300;;;
74485;BMP280;62942;52.462;10.846;2023-09-08T01:29:10;101290;;;
74485;BMP280;62942;52.462;10.846;2023-09-08T01:30:21;101300;;;
74485;BMP280;62942;52.462;10.846;2023-09-08T01:31:30;101310;;;
74485;BMP280;62942;52.462;10.846;2023-09-08T01:32:30;101310;;;
74485;BMP280;62942;52.462;10.846;2023-09-08T01:33:30;101300;;;
74485;BMP280;62942;52.462;10.846;2023-09-08T01:34:40;101310;;;
74485;BMP280;62942;52.462;10.846;2023-09-08T01:35:40;101310;;;
74485;BMP280;62942;52.462;10.846;2023-09-08T01:36:40;101310;;;
74485;BMP280;62942;52.462;10.846;2023-09-08T01:37:50;101310;;;
74485;BMP280;62942;52.462;10.846;2023-09-08T01:38:50;101310;;;
74485;BMP280;62942;52.462;10.846;2023-09-08T01:40:00;101310;;;
74485;BMP280;62942;52.462;10.846;2023-09-08T01:41:00;101300;;;
74485;BMP280;62942;52.462;10.846;2023-09-08T01:42:00;101310;;;
74485;BMP280;62942;52.462;10.846;2023-09-08T01:43:10;101310;;;
74485;BMP280;62942;52.462;10.846;2023-09-08T01:44:10;101300;;;
74485;BMP280;62942;52.462;10.846;2023-09-08T01:45:20;101300;;;
74485;BMP280;62942;52.462;10.846;2023-09-08T01:46:20;101300;;;
74485;BMP280;62942;52.462;10.846;2023-09-08T01:47:30;101310;;;
74485;BMP280;62942;52.462;10.846;2023-09-08T01:48:30;101310;;;
74485;BMP280;62942;52.462;10.846;2023-09-08T01:49:40;101300;;;
74485;BMP280;62942;52.462;10.846;2023-09-08T01:50:50;101300;;;
74485;BMP280;62942;52.462;10.846;2023-09-08T01:51:50;101300;;;
74485;BMP280;62942;52.462;10.846;2023-09-08T01:53:00;101300;;;
74485;BMP280;62942;52.462;10.846;2023-09-08T01:54:00;101300;;;
74485;BMP280;62942;52.462;10.846;2023-09-08T01:55:10;101300;;;
74485;BMP280;62942;52.462;10.846;2023-09-08T01:56:10;101300;;;
74485;BMP280;62942;52.462;10.846;2023-09-08T01:57:20;101300;;;
74485;BMP280;62942;52.462;10.846;2023-09-08T01:58:20;101300;;;
74485;BMP280;62942;52.462;10.846;2023-09-08T01:59:30;101290;;;
74485;BMP280;62942;52.462;10.846;2023-09-08T02:00:30;101300;;;
74485;BMP280;62942;52.462;10.846;2023-09-08T02:01:40;101300;;;
74485;BMP280;62942;52.462;10.846;2023-09-08T02:02:50;101300;;;
74485;BMP280;62942;52.462;10.846;2023-09-08T02:04:00;101290;;;
74485;BMP280;62942;52.462;10.846;2023-09-08T02:05:10;101290;;;
74485;BMP280;62942;52.462;10.846;2023-09-08T02:06:20;101290;;;
74485;BMP280;62942;52.462;10.846;2023-09-08T02:07:20;101290;;;
74485;BMP280;62942;52.462;10.846;2023-09-08T02:08:30;101290;;;
74485;BMP280;62942;52.462;10.846;2023-09-08T02:09:40;101290;;;
74485;BMP280;62942;52.462;10.846;2023-09-08T02:10:50;101290;;;
74485;BMP280;62942;52.462;10.846;2023-09-08T02:11:50;101290;;;
74485;BMP280;62942;52.462;10.846;2023-09-08T02:12:50;101290;;;
74485;BMP280;62942;52.462;10.846;2023-09-08T02:14:00;101290;;;
74485;BMP280;62942;52.462;10.846;2023-09-08T02:15:10;101290;;;
74485;BMP280;62942;52.462;10.846;2023-09-08T02:16:20;101290;;;
74485;BMP280;62942;52.462;10.846;2023-09-08T02:17:20;101290;;;
74485;BMP280;62942;52.462;10.846;2023-09-08T02:18:30;101290;;;
74485;BMP280;62942;52.462;10.846;2023-09-08T02:19:30;101290;;;
74485;BMP280;62942;52.462;10.846;2023-09-08T02:20:40;101290;;;
74485;BMP280;62942;52.462;10.846;2023-09-08T02:21:40;101290;;;
74485;BMP280;62942;52.462;10.846;2023-09-08T02:22:54;101290;;;
74485;BMP280;62942;52.462;10.846;2023-09-08T02:23:50;101290;;;
74485;BMP280;62942;52.462;10.846;2023-09-08T02:25:00;101290;;;
74485;BMP280;62942;52.462;10.846;2023-09-08T02:26:00;101290;;;
74485;BMP280;62942;52.462;10.846;2023-09-08T02:27:10;101290;;;
74485;BMP280;62942;52.462;10.846;2023-09-08T02:28:20;101290;;;
74485;BMP280;62942;52.462;10.846;2023-09-08T02:29:30;101290;;;
74485;BMP280;62942;52.462;10.846;2023-09-08T02:30:40;101290;;;
74485;BMP280;62942;52.462;10.846;2023-09-08T02:31:40;101290;;;
74485;BMP280;62942;52.462;10.846;2023-09-08T02:32:50;101290;;;
74485;BMP280;62942;52.462;10.846;2023-09-08T02:34:00;101290;;;
74485;BMP280;62942;52.462;10.846;2023-09-08T02:35:00;101290;;;
74485;BMP280;62942;52.462;10.846;2023-09-08T02:36:10;101290;;;
74485;BMP280;62942;52.462;10.846;2023-09-08T02:37:20;101290;;;
74485;BMP280;62942;52.462;10.846;2023-09-08T02:38:20;101290;;;
74485;BMP280;62942;52.462;10.846;2023-09-08T02:39:20;101280;;;
74485;BMP280;62942;52.462;10.846;2023-09-08T02:40:20;101280;;;
74485;BMP280;62942;52.462;10.846;2023-09-08T02:41:30;101290;;;
74485;BMP280;62942;52.462;10.846;2023-09-08T02:42:30;101280;;;
74485;BMP280;62942;52.462;10.846;2023-09-08T02:43:40;101280;;;
74485;BMP280;62942;52.462;10.846;2023-09-08T02:44:51;101280;;;
74485;BMP280;62942;52.462;10.846;2023-09-08T02:45:50;101280;;;
74485;BMP280;62942;52.462;10.846;2023-09-08T02:47:00;101270;;;
74485;BMP280;62942;52.462;10.846;2023-09-08T02:48:00;101280;;;
74485;BMP280;62942;52.462;10.846;2023-09-08T02:49:10;101270;;;
74485;BMP280;62942;52.462;10.846;2023-09-08T02:50:20;101270;;;
74485;BMP280;62942;52.462;10.846;2023-09-08T02:51:30;101270;;;
74485;BMP280;62942;52.462;10.846;2023-09-08T02:52:30;101270;;;
74485;BMP280;62942;52.462;10.846;2023-09-08T02:53:40;101270;;;
74485;BMP280;62942;52.462;10.846;2023-09-08T02:54:40;101270;;;
74485;BMP280;62942;52.462;10.846;2023-09-08T02:55:40;101270;;;
74485;BMP280;62942;52.462;10.846;2023-09-08T02:56:50;101270;;;
74485;BMP280;62942;52.462;10.846;2023-09-08T02:58:00;101270;;;
74485;BMP280;62942;52.462;10.846;2023-09-08T02:59:10;101270;;;
74485;BMP280;62942;52.462;10.846;2023-09-08T03:00:20;101270;;;
74485;BMP280;62942;52.462;10.846;2023-09-08T03:01:30;101270;;;
74485;BMP280;62942;52.462;10.846;2023-09-08T03:02:30;101270;;;
74485;BMP280;62942;52.462;10.846;2023-09-08T03:03:40;101260;;;
74485;BMP280;62942;52.462;10.846;2023-09-08T03:04:50;101260;;;
74485;BMP280;62942;52.462;10.846;2023-09-08T03:06:00;101260;;;
74485;BMP280;62942;52.462;10.846;2023-09-08T03:07:00;101260;;;
74485;BMP280;62942;52.462;10.846;2023-09-08T03:08:10;101260;;;
74485;BMP280;62942;52.462;10.846;2023-09-08T03:09:20;101260;;;
74485;BMP280;62942;52.462;10.846;2023-09-08T03:10:30;101260;;;
74485;BMP280;62942;52.462;10.846;2023-09-08T03:11:30;101260;;;
74485;BMP280;62942;52.462;10.846;2023-09-08T03:12:40;101260;;;
74485;BMP280;62942;52.462;10.846;2023-09-08T03:13:50;101250;;;
74485;BMP280;62942;52.462;10.846;2023-09-08T03:15:00;101250;;;
74485;BMP280;62942;52.462;10.846;2023-09-08T03:16:02;101260;;;
74485;BMP280;62942;52.462;10.846;2023-09-08T03:17:10;101260;;;
74485;BMP280;62942;52.462;10.846;2023-09-08T03:18:20;101250;;;
74485;BMP280;62942;52.462;10.846;2023-09-08T03:19:30;101260;;;
74485;BMP280;62942;52.462;10.846;2023-09-08T03:20:40;101260;;;
74485;BMP280;62942;52.462;10.846;2023-09-08T03:21:40;101260;;;
74485;BMP280;62942;52.462;10.846;2023-09-08T03:22:40;101260;;;
74485;BMP280;62942;52.462;10.846;2023-09-08T03:23:50;101250;;;
74485;BMP280;62942;52.462;10.846;2023-09-08T03:25:00;101260;;;
74485;BMP280;62942;52.462;10.846;2023-09-08T03:26:10;101260;;;
74485;BMP280;62942;52.462;10.846;2023-09-08T03:27:20;101250;;;
74485;BMP280;62942;52.462;10.846;2023-09-08T03:28:30;101250;;;
74485;BMP280;62942;52.462;10.846;2023-09-08T03:29:30;101240;;;
74485;BMP280;62942;52.462;10.846;2023-09-08T03:30:40;101240;;;
74485;BMP280;62942;52.462;10.846;2023-09-08T03:31:40;101250;;;
74485;BMP280;62942;52.462;10.846;2023-09-08T03:32:50;101250;;;
74485;BMP280;62942;52.462;10.846;2023-09-08T03:34:00;101250;;;
74485;BMP280;62942;52.462;10.846;2023-09-08T03:35:00;101250;;;
74485;BMP280;62942;52.462;10.846;2023-09-08T03:36:10;101250;;;
74485;BMP280;62942;52.462;10.846;2023-09-08T03:37:20;101250;;;
74485;BMP280;62942;52.462;10.846;2023-09-08T03:38:20;101250;;;
74485;BMP280;62942;52.462;10.846;2023-09-08T03:39:20;101250;;;
74485;BMP280;62942;52.462;10.846;2023-09-08T03:40:30;101240;;;
74485;BMP280;62942;52.462;10.846;2023-09-08T03:41:30;101250;;;
74485;BMP280;62942;52.462;10.846;2023-09-08T03:42:40;101250;;;
74485;BMP280;62942;52.462;10.846;2023-09-08T03:43:50;101250;;;
74485;BMP280;62942;52.462;10.846;2023-09-08T03:44:50;101250;;;
74485;BMP280;62942;52.462;10.846;2023-09-08T03:46:00;101250;;;
74485;BMP280;62942;52.462;10.846;2023-09-08T03:47:10;101250;;;
74485;BMP280;62942;52.462;10.846;2023-09-08T03:48:20;101250;;;
74485;BMP280;62942;52.462;10.846;2023-09-08T03:49:20;101250;;;
74485;BMP280;62942;52.462;10.846;2023-09-08T03:50:30;101250;;;
74485;BMP280;62942;52.462;10.846;2023-09-08T03:51:40;101240;;;
74485;BMP280;62942;52.462;10.846;2023-09-08T03:52:40;101250;;;
74485;BMP280;62942;52.462;10.846;2023-09-08T03:53:40;101250;;;
74485;BMP280;62942;52.462;10.846;2023-09-08T03:54:40;101250;;;
74485;BMP280;62942;52.462;10.846;2023-09-08T03:55:50;101250;;;
74485;BMP280;62942;52.462;10.846;2023-09-08T03:57:00;101250;;;
74485;BMP280;62942;52.462;10.846;2023-09-08T03:58:00;101250;;;
74485;BMP280;62942;52.462;10.846;2023-09-08T03:59:00;101250;;;
74485;BMP280;62942;52.462;10.846;2023-09-08T04:00:10;101250;;;
74485;BMP280;62942;52.462;10.846;2023-09-08T04:01:10;101260;;;
74485;BMP280;62942;52.462;10.846;2023-09-08T04:02:20;101250;;;
74485;BMP280;62942;52.462;10.846;2023-09-08T04:03:30;101250;;;
74485;BMP280;62942;52.462;10.846;2023-09-08T04:04:40;101250;;;
74485;BMP280;62942;52.462;10.846;2023-09-08T04:05:40;101260;;;
74485;BMP280;62942;52.462;10.846;2023-09-08T04:06:50;101250;;;
74485;BMP280;62942;52.462;10.846;2023-09-08T04:08:00;101260;;;
74485;BMP280;62942;52.462;10.846;2023-09-08T04:09:10;101260;;;
74485;BMP280;62942;52.462;10.846;2023-09-08T04:10:10;101260;;;
74485;BMP280;62942;52.462;10.846;2023-09-08T04:11:20;101250;;;
74485;BMP280;62942;52.462;10.846;2023-09-08T04:12:30;101250;;;
74485;BMP280;62942;52.462;10.846;2023-09-08T04:13:40;101260;;;
74485;BMP280;62942;52.462;10.846;2023-09-08T04:14:40;101250;;;
74485;BMP280;62942;52.462;10.846;2023-09-08T04:15:40;101240;;;
74485;BMP280;62942;52.462;10.846;2023-09-08T04:16:50;101250;;;
74485;BMP280;62942;52.462;10.846;2023-09-08T04:17:50;101250;;;
74485;BMP280;62942;52.462;10.846;2023-09-08T04:19:00;101250;;;
74485;BMP280;62942;52.462;10.846;2023-09-08T04:20:10;101250;;;
74485;BMP280;62942;52.462;10.846;2023-09-08T04:21:20;101250;;;
74485;BMP280;62942;52.462;10.846;2023-09-08T04:22:20;101260;;;
74485;BMP280;62942;52.462;10.846;2023-09-08T04:23:20;101250;;;
74485;BMP280;62942;52.462;10.846;2023-09-08T04:24:34;101250;;;
74485;BMP280;62942;52.462;10.846;2023-09-08T04:25:30;101250;;;
74485;BMP280;62942;52.462;10.846;2023-09-08T04:26:40;101250;;;
74485;BMP280;62942;52.462;10.846;2023-09-08T04:27:50;101250;;;
74485;BMP280;62942;52.462;10.846;2023-09-08T04:29:00;101250;;;
74485;BMP280;62942;52.462;10.846;2023-09-08T04:30:10;101250;;;
74485;BMP280;62942;52.462;10.846;2023-09-08T04:31:20;101250;;;
74485;BMP280;62942;52.462;10.846;2023-09-08T04:32:20;101250;;;
74485;BMP280;62942;52.462;10.846;2023-09-08T04:33:30;101250;;;
74485;BMP280;62942;52.462;10.846;2023-09-08T04:34:40;101250;;;
74485;BMP280;62942;52.462;10.846;2023-09-08T04:35:50;101240;;;
74485;BMP280;62942;52.462;10.846;2023-09-08T04:36:50;101240;;;
74485;BMP280;62942;52.462;10.846;2023-09-08T04:38:00;101240;;;
74485;BMP280;62942;52.462;10.846;2023-09-08T04:39:10;101240;;;
74485;BMP280;62942;52.462;10.846;2023-09-08T04:40:10;101250;;;
74485;BMP280;62942;52.462;10.846;2023-09-08T04:41:20;101240;;;
74485;BMP280;62942;52.462;10.846;2023-09-08T04:42:30;101250;;;
74485;BMP280;62942;52.462;10.846;2023-09-08T04:43:40;101250;;;
74485;BMP280;62942;52.462;10.846;2023-09-08T04:44:40;101250;;;
74485;BMP280;62942;52.462;10.846;2023-09-08T04:45:40;101240;;;
74485;BMP280;62942;52.462;10.846;2023-09-08T04:46:50;101240;;;
74485;BMP280;62942;52.462;10.846;2023-09-08T04:47:50;101250;;;
74485;BMP280;62942;52.462;10.846;2023-09-08T04:49:00;101250;;;
74485;BMP280;62942;52.462;10.846;2023-09-08T04:50:00;101240;;;
74485;BMP280;62942;52.462;10.846;2023-09-08T04:51:00;101250;;;
74485;BMP280;62942;52.462;10.846;2023-09-08T04:52:10;101240;;;
74485;BMP280;62942;52.462;10.846;2023-09-08T04:53:20;101240;;;
74485;BMP280;62942;52.462;10.846;2023-09-08T04:54:20;101240;;;
74485;BMP280;62942;52.462;10.846;2023-09-08T04:55:30;101230;;;
74485;BMP280;62942;52.462;10.846;2023-09-08T04:56:40;101230;;;
74485;BMP280;62942;52.462;10.846;2023-09-08T04:57:50;101240;;;
74485;BMP280;62942;52.462;10.846;2023-09-08T04:58:50;101240;;;
74485;BMP280;62942;52.462;10.846;2023-09-08T05:00:00;101240;;;
74485;BMP280;62942;52.462;10.846;2023-09-08T05:01:10;101240;;;
74485;BMP280;62942;52.462;10.846;2023-09-08T05:02:10;101240;;;
74485;BMP280;62942;52.462;10.846;2023-09-08T05:03:20;101240;;;
74485;BMP280;62942;52.462;10.846;2023-09-08T05:04:20;101240;;;
74485;BMP280;62942;52.462;10.846;2023-09-08T05:05:30;101250;;;
74485;BMP280;62942;52.462;10.846;2023-09-08T05:06:30;101240;;;
74485;BMP280;62942;52.462;10.846;2023-09-08T05:07:40;101250;;;
74485;BMP280;62942;52.462;10.846;2023-09-08T05:08:40;101250;;;
74485;BMP280;62942;52.462;10.846;2023-09-08T05:09:50;101250;;;
74485;BMP280;62942;52.462;10.846;2023-09-08T05:10:50;101250;;;
74485;BMP280;62942;52.462;10.846;2023-09-08T05:12:00;101250;;;
74485;BMP280;62942;52.462;10.846;2023-09-08T05:13:10;101250;;;
74485;BMP280;62942;52.462;10.846;2023-09-08T05:14:20;101250;;;
74485;BMP280;62942;52.462;10.846;2023-09-08T05:15:30;101250;;;
74485;BMP280;62942;52.462;10.846;2023-09-08T05:16:30;101250;;;
74485;BMP280;62942;52.462;10.846;2023-09-08T05:17:40;101250;;;
74485;BMP280;62942;52.462;10.846;2023-09-08T05:18:50;101240;;;
74485;BMP280;62942;52.462;10.846;2023-09-08T05:20:00;101240;;;
74485;BMP280;62942;52.462;10.846;2023-09-08T05:21:10;101250;;;
74485;BMP280;62942;52.462;10.846;2023-09-08T05:22:20;101240;;;
74485;BMP280;62942;52.462;10.846;2023-09-08T05:23:30;101250;;;
74485;BMP280;62942;52.462;10.846;2023-09-08T05:24:30;101250;;;
74485;BMP280;62942;52.462;10.846;2023-09-08T05:25:41;101240;;;
74485;BMP280;62942;52.462;10.846;2023-09-08T05:26:50;101250;;;
74485;BMP280;62942;52.462;10.846;2023-09-08T05:28:00;101250;;;
74485;BMP280;62942;52.462;10.846;2023-09-08T05:29:00;101250;;;
74485;BMP280;62942;52.462;10.846;2023-09-08T05:30:10;101250;;;
74485;BMP280;62942;52.462;10.846;2023-09-08T05:31:20;101250;;;
74485;BMP280;62942;52.462;10.846;2023-09-08T05:32:20;101250;;;
74485;BMP280;62942;52.462;10.846;2023-09-08T05:33:30;101250;;;
74485;BMP280;62942;52.462;10.846;2023-09-08T05:34:40;101250;;;
74485;BMP280;62942;52.462;10.846;2023-09-08T05:35:50;101250;;;
74485;BMP280;62942;52.462;10.846;2023-09-08T05:36:50;101250;;;
74485;BMP280;62942;52.462;10.846;2023-09-08T05:37:50;101250;;;
74485;BMP280;62942;52.462;10.846;2023-09-08T05:38:50;101250;;;
74485;BMP280;62942;52.462;10.846;2023-09-08T05:40:00;101250;;;
74485;BMP280;62942;52.462;10.846;2023-09-08T05:41:00;101250;;;
74485;BMP280;62942;52.462;10.846;2023-09-08T05:42:10;101240;;;
74485;BMP280;62942;52.462;10.846;2023-09-08T05:43:10;101250;;;
74485;BMP280;62942;52.462;10.846;2023-09-08T05:44:10;101250;;;
74485;BMP280;62942;52.462;10.846;2023-09-08T05:45:20;101250;;;
74485;BMP280;62942;52.462;10.846;2023-09-08T05:46:30;101260;;;
74485;BMP280;62942;52.462;10.846;2023-09-08T05:47:40;101250;;;
74485;BMP280;62942;52.462;10.846;2023-09-08T05:48:40;101250;;;
74485;BMP280;62942;52.462;10.846;2023-09-08T05:49:50;101260;;;
74485;BMP280;62942;52.462;10.846;2023-09-08T05:51:00;101250;;;
74485;BMP280;62942;52.462;10.846;2023-09-08T05:52:00;101250;;;
74485;BMP280;62942;52.462;10.846;2023-09-08T05:53:10;101250;;;
74485;BMP280;62942;52.462;10.846;2023-09-08T05:54:10;101250;;;
74485;BMP280;62942;52.462;10.846;2023-09-08T05:55:20;101250;;;
74485;BMP280;62942;52.462;10.846;2023-09-08T05:56:30;101250;;;
74485;BMP280;62942;52.462;10.846;2023-09-08T05:57:40;101250;;;
74485;BMP280;62942;52.462;10.846;2023-09-08T05:58:40;101250;;;
74485;BMP280;62942;52.462;10.846;2023-09-08T05:59:50;101240;;;
74485;BMP280;62942;52.462;10.846;2023-09-08T06:01:00;101250;;;
74485;BMP280;62942;52.462;10.846;2023-09-08T06:02:10;101250;;;
74485;BMP280;62942;52.462;10.846;2023-09-08T06:03:20;101250;;;
74485;BMP280;62942;52.462;10.846;2023-09-08T06:04:20;101250;;;
74485;BMP280;62942;52.462;10.846;2023-09-08T06:05:20;101240;;;
74485;BMP280;62942;52.462;10.846;2023-09-08T06:06:20;101240;;;
74485;BMP280;62942;52.462;10.846;2023-09-08T06:07:30;101240;;;
74485;BMP280;62942;52.462;10.846;2023-09-08T06:08:30;101240;;;
74485;BMP280;62942;52.462;10.846;2023-09-08T06:09:40;101250;;;
74485;BMP280;62942;52.462;10.846;2023-09-08T06:10:40;101240;;;
74485;BMP280;62942;52.462;10.846;2023-09-08T06:11:40;101250;;;
74485;BMP280;62942;52.462;10.846;2023-09-08T06:12:50;101240;;;
74485;BMP280;62942;52.462;10.846;2023-09-08T06:13:50;101250;;;
74485;BMP280;62942;52.462;10.846;2023-09-08T06:15:01;101240;;;
74485;BMP280;62942;52.462;10.846;2023-09-08T06:16:00;101240;;;
74485;BMP280;62942;52.462;10.846;2023-09-08T06:17:10;101240;;;
74485;BMP280;62942;52.462;10.846;2023-09-08T06:18:10;101240;;;
74485;BMP280;62942;52.462;10.846;2023-09-08T06:19:11;101230;;;
74485;BMP280;62942;52.462;10.846;2023-09-08T06:20:20;101250;;;
74485;BMP280;62942;52.462;10.846;2023-09-08T06:21:20;101240;;;
74485;BMP280;62942;52.462;10.846;2023-09-08T06:22:30;101240;;;
74485;BMP280;62942;52.462;10.846;2023-09-08T06:23:40;101230;;;
74485;BMP280;62942;52.462;10.846;2023-09-08T06:24:50;101240;;;
74485;BMP280;62942;52.462;10.846;2023-09-08T06:26:00;101240;;;
74485;BMP280;62942;52.462;10.846;2023-09-08T06:27:10;101240;;;
74485;BMP280;62942;52.462;10.846;2023-09-08T06:28:20;101240;;;
74485;BMP280;62942;52.462;10.846;2023-09-08T06:29:20;101240;;;
74485;BMP280;62942;52.462;10.846;2023-09-08T06:30:30;101240;;;
74485;BMP280;62942;52.462;10.846;2023-09-08T06:31:30;101240;;;
74485;BMP280;62942;52.462;10.846;2023-09-08T06:32:40;101230;;;
74485;BMP280;62942;52.462;10.846;2023-09-08T06:33:50;101240;;;
74485;BMP280;62942;52.462;10.846;2023-09-08T06:35:00;101240;;;
74485;BMP280;62942;52.462;10.846;2023-09-08T06:36:00;101250;;;
74485;BMP280;62942;52.462;10.846;2023-09-08T06:37:10;101250;;;
74485;BMP280;62942;52.462;10.846;2023-09-08T06:38:20;101240;;;
74485;BMP280;62942;52.462;10.846;2023-09-08T06:39:30;101240;;;
74485;BMP280;62942;52.462;10.846;2023-09-08T06:40:30;101230;;;
74485;BMP280;62942;52.462;10.846;2023-09-08T06:41:30;101240;;;
74485;BMP280;62942;52.462;10.846;2023-09-08T06:42:40;101240;;;
74485;BMP280;62942;52.462;10.846;2023-09-08T06:43:50;101240;;;
74485;BMP280;62942;52.462;10.846;2023-09-08T06:45:00;101240;;;
74485;BMP280;62942;52.462;10.846;2023-09-08T06:46:10;101250;;;
74485;BMP280;62942;52.462;10.846;2023-09-08T06:47:10;101250;;;
74485;BMP280;62942;52.462;10.846;2023-09-08T06:48:20;101250;;;
74485;BMP280;62942;52.462;10.846;2023-09-08T06:49:20;101240;;;
74485;BMP280;62942;52.462;10.846;2023-09-08T06:50:30;101250;;;
74485;BMP280;62942;52.462;10.846;2023-09-08T06:51:30;101250;;;
74485;BMP280;62942;52.462;10.846;2023-09-08T06:52:40;101240;;;
74485;BMP280;62942;52.462;10.846;2023-09-08T06:53:40;101240;;;
74485;BMP280;62942;52.462;10.846;2023-09-08T06:54:50;101250;;;
74485;BMP280;62942;52.462;10.846;2023-09-08T06:56:00;101250;;;
74485;BMP280;62942;52.462;10.846;2023-09-08T06:57:10;101240;;;
74485;BMP280;62942;52.462;10.846;2023-09-08T06:58:20;101240;;;
74485;BMP280;62942;52.462;10.846;2023-09-08T06:59:20;101240;;;